Time;durP1;ratioP1;P1;durP2;ratioP2;P2;SDS_P1;SDS_P2;PMS_P1;PMS_P2;Temp;Humidity;BMP_temperature;BMP_pressure;BME280_temperature;BME280_humidity;BME280_pressure;Samples;Min_cycle;Max_cycle;Signal;HPM_P1;HPM_P2
2022/08/06 00:00:15;;;;;;;;;0.00;0.00;;;;;22.47;39.15;102221.56;5055281;28;56607;-71
2022/08/06 00:02:40;;;;;;;;;2.00;1.00;;;;;22.47;39.25;102218.00;5056882;28;49068;-72
2022/08/06 00:05:06;;;;;;;;;1.33;1.00;;;;;22.43;38.97;102222.56;5055596;28;45308;-70
2022/08/06 00:07:31;;;;;;;;;1.00;1.00;;;;;22.33;39.42;102214.66;5056139;28;45457;-71
2022/08/06 00:09:57;;;;;;;;;2.00;1.00;;;;;22.38;39.48;102229.81;5055859;28;45342;-72
2022/08/06 00:12:22;;;;;;;;;3.00;1.33;;;;;22.35;39.69;102229.84;5056580;28;45695;-73
2022/08/06 00:14:47;;;;;;;;;2.00;2.00;;;;;22.30;39.84;102218.25;5056247;28;61993;-71
2022/08/06 00:17:13;;;;;;;;;2.00;1.00;;;;;22.29;39.77;102227.25;5055951;28;55062;-70
2022/08/06 00:19:38;;;;;;;;;3.00;2.00;;;;;22.25;39.92;102222.81;5056796;28;45220;-71
2022/08/06 00:22:03;;;;;;;;;1.00;1.00;;;;;22.25;39.84;102230.00;5056154;28;61503;-72
2022/08/06 00:24:29;;;;;;;;;2.33;1.33;;;;;22.20;40.47;102217.50;5056305;28;45374;-70
2022/08/06 00:26:54;;;;;;;;;2.33;1.00;;;;;22.21;40.35;102216.63;5055623;28;45985;-71
2022/08/06 00:29:20;;;;;;;;;1.00;1.00;;;;;22.16;40.32;102225.69;5056838;28;45374;-71
2022/08/06 00:31:45;;;;;;;;;0.00;0.00;;;;;22.17;40.34;102236.41;5056631;28;45278;-72
2022/08/06 00:34:10;;;;;;;;;2.00;1.00;;;;;22.13;40.23;102225.72;5056106;28;53699;-72
2022/08/06 00:36:36;;;;;;;;;1.00;1.00;;;;;22.13;40.60;102240.03;5055598;28;61862;-71
2022/08/06 00:39:04;;;;;;;;;3.33;1.67;;;;;22.10;40.78;102225.69;5056813;28;45347;-71
2022/08/06 00:41:30;;;;;;;;;1.00;1.00;;;;;22.06;40.50;102232.94;5056287;28;46644;-71
2022/08/06 00:43:56;;;;;;;;;1.00;1.00;;;;;22.04;40.85;102232.06;5056357;28;45439;-71
2022/08/06 00:46:22;;;;;;;;;0.67;0.33;;;;;21.99;40.87;102228.56;5038008;28;45368;-70
2022/08/06 00:48:47;;;;;;;;;1.00;1.00;;;;;21.97;40.90;102230.38;5056574;28;45258;-71
2022/08/06 00:51:13;;;;;;;;;1.00;1.00;;;;;21.96;41.24;102234.88;5055414;28;65616;-71
2022/08/06 00:53:38;;;;;;;;;2.00;2.00;;;;;21.95;41.04;102240.28;5055068;28;63919;-71
2022/08/06 00:56:04;;;;;;;;;0.00;0.00;;;;;21.90;41.16;102234.09;5056503;28;45483;-72
2022/08/06 00:58:30;;;;;;;;;1.00;1.00;;;;;21.90;41.40;102236.78;5056418;28;45193;-71
2022/08/06 01:00:55;;;;;;;;;1.00;1.00;;;;;21.87;41.52;102240.38;5055141;28;70519;-72
2022/08/06 01:03:21;;;;;;;;;2.00;0.00;;;;;21.84;41.31;102237.75;5054347;28;61121;-72
2022/08/06 01:05:46;;;;;;;;;1.00;1.00;;;;;21.83;41.49;102244.00;5058279;28;45167;-71
2022/08/06 01:08:13;;;;;;;;;2.00;0.00;;;;;21.81;41.79;102240.47;5059103;28;58719;-71
2022/08/06 01:10:38;;;;;;;;;2.00;0.33;;;;;21.75;41.99;102229.78;5059312;28;45864;-71
2022/08/06 01:13:04;;;;;;;;;0.33;0.33;;;;;21.74;41.96;102238.78;5059568;28;45387;-71
2022/08/06 01:15:29;;;;;;;;;1.67;1.00;;;;;21.67;42.05;102231.66;5059152;28;45549;-70
2022/08/06 01:18:08;;;;;;;;;1.00;1.00;;;;;21.67;42.02;102242.44;5058477;28;45731;-70
2022/08/06 01:20:43;;;;;;;;;2.33;1.00;;;;;21.65;42.08;102250.53;5058780;28;46556;-70
2022/08/06 01:23:27;;;;;;;;;1.67;1.00;;;;;21.62;42.48;102253.22;5041238;28;45396;-71
2022/08/06 01:26:10;;;;;;;;;2.00;1.00;;;;;21.60;42.98;102256.88;5059309;28;45280;-71
2022/08/06 01:28:47;;;;;;;;;2.00;1.00;;;;;21.57;42.64;102254.19;5059396;28;45415;-71
2022/08/06 01:31:17;;;;;;;;;1.00;1.00;;;;;21.55;42.69;102256.91;5058087;28;46429;-71
2022/08/06 01:33:56;;;;;;;;;2.00;1.00;;;;;21.51;42.81;102247.09;5059028;28;45221;-72
2022/08/06 01:36:46;;;;;;;;;3.33;1.00;;;;;21.51;42.91;102257.84;5058287;28;45377;-71
2022/08/06 01:39:13;;;;;;;;;1.00;1.00;;;;;21.50;43.29;102255.19;5057935;28;45493;-71
2022/08/06 01:41:44;;;;;;;;;1.00;1.00;;;;;21.45;43.51;102250.75;5040642;28;46863;-72
2022/08/06 01:44:12;;;;;;;;;1.00;1.00;;;;;21.44;43.37;102246.28;5057721;28;45348;-69
2022/08/06 01:46:40;;;;;;;;;0.33;0.33;;;;;21.40;43.45;102247.22;5058767;28;45241;-70
2022/08/06 01:49:08;;;;;;;;;1.00;1.00;;;;;21.41;43.58;102258.84;5057860;28;45470;-71
2022/08/06 01:51:35;;;;;;;;;1.00;1.00;;;;;21.37;43.79;102258.03;5057513;28;45702;-72
2022/08/06 01:54:02;;;;;;;;;0.00;0.00;;;;;21.34;43.99;102251.78;5057289;28;45189;-71
2022/08/06 01:56:30;;;;;;;;;1.00;1.00;;;;;21.32;43.93;102250.91;5057612;28;45268;-71
2022/08/06 01:58:56;;;;;;;;;1.00;1.00;;;;;21.27;44.12;102252.72;5057824;28;45378;-72
2022/08/06 02:01:22;;;;;;;;;1.00;1.00;;;;;21.24;43.92;102258.13;5056637;28;62147;-73
2022/08/06 02:03:50;;;;;;;;;1.00;1.00;;;;;21.22;44.44;102255.47;5039973;28;64809;-72
2022/08/06 02:06:22;;;;;;;;;2.00;1.00;;;;;21.19;44.59;102258.16;5058535;28;45442;-71
2022/08/06 02:08:49;;;;;;;;;1.33;1.00;;;;;21.13;44.46;102250.19;5058943;28;45534;-71
2022/08/06 02:11:14;;;;;;;;;1.33;1.00;;;;;21.09;44.33;102245.72;5056910;28;57848;-72
2022/08/06 02:13:40;;;;;;;;;2.33;1.33;;;;;21.10;44.59;102250.22;5057803;28;61160;-71
2022/08/06 02:16:07;;;;;;;;;3.33;1.33;;;;;21.06;45.15;102249.34;5056027;28;45482;-72
2022/08/06 02:18:40;;;;;;;;;1.67;1.00;;;;;21.07;44.87;102247.56;5057300;28;45632;-71
2022/08/06 02:21:25;;;;;;;;;2.33;1.67;;;;;21.03;44.81;102253.84;5040033;28;46292;-71
2022/08/06 02:23:51;;;;;;;;;3.00;1.00;;;;;21.01;44.83;102248.50;5056807;28;45570;-71
2022/08/06 02:26:17;;;;;;;;;1.67;1.00;;;;;20.99;45.19;102253.00;5058582;28;45387;-70
2022/08/06 02:28:43;;;;;;;;;1.00;1.00;;;;;20.98;45.31;102250.31;5058364;28;45250;-72
2022/08/06 02:31:09;;;;;;;;;1.00;1.00;;;;;20.94;45.74;102249.47;5058358;28;47082;-70
2022/08/06 02:33:34;;;;;;;;;1.67;0.67;;;;;20.87;45.48;102245.94;5056839;28;45386;-70
2022/08/06 02:36:16;;;;;;;;;2.00;1.00;;;;;20.88;45.70;102258.50;5056400;28;59378;-72
2022/08/06 02:38:48;;;;;;;;;0.67;0.67;;;;;20.85;45.81;102260.28;5057170;28;45466;-71
2022/08/06 02:41:21;;;;;;;;;0.67;0.67;;;;;20.80;45.53;102249.59;5056802;28;45363;-72
2022/08/06 02:43:53;;;;;;;;;0.67;0.67;;;;;20.79;45.82;102246.94;5039999;28;45379;-71
2022/08/06 02:46:38;;;;;;;;;0.33;0.33;;;;;20.73;45.94;102239.81;5056542;28;45655;-72
2022/08/06 02:49:10;;;;;;;;;1.00;1.00;;;;;20.73;46.01;102255.03;5058322;28;45249;-71
2022/08/06 02:51:39;;;;;;;;;1.33;1.33;;;;;20.68;45.83;102241.66;5056364;28;46013;-72
2022/08/06 02:54:15;;;;;;;;;0.67;0.67;;;;;20.67;46.47;102242.56;5039450;28;45438;-72
2022/08/06 02:56:44;;;;;;;;;3.67;2.00;;;;;20.69;46.52;102253.28;5056741;28;45471;-71
2022/08/06 02:59:10;;;;;;;;;1.67;1.00;;;;;20.66;46.11;102243.44;5056939;28;45269;-72
2022/08/06 03:01:41;;;;;;;;;1.00;1.00;;;;;20.63;46.36;102240.81;5055615;28;67879;-70
2022/08/06 03:04:07;;;;;;;;;0.00;0.00;;;;;20.61;46.74;102239.91;5056584;28;45405;-71
2022/08/06 03:06:35;;;;;;;;;3.00;2.00;;;;;20.63;46.60;102244.38;5056689;28;45421;-72
2022/08/06 03:09:03;;;;;;;;;1.67;1.00;;;;;20.63;46.46;102243.50;5039851;28;45510;-71
2022/08/06 03:11:33;;;;;;;;;6.67;2.00;;;;;20.61;46.58;102237.22;5056334;28;45787;-72
2022/08/06 03:14:01;;;;;;;;;0.67;0.67;;;;;20.58;46.94;102234.59;5039803;28;45533;-70
2022/08/06 03:16:27;;;;;;;;;0.33;0.33;;;;;20.57;47.28;102241.75;5056337;28;45472;-72
2022/08/06 03:18:53;;;;;;;;;1.33;1.33;;;;;20.54;47.25;102240.88;5039632;28;45312;-71
2022/08/06 03:21:21;;;;;;;;;0.67;0.67;;;;;20.54;47.14;102238.19;5039062;28;60514;-72
2022/08/06 03:23:47;;;;;;;;;2.00;1.00;;;;;20.50;46.86;102233.72;5057302;28;45450;-70
2022/08/06 03:26:13;;;;;;;;;0.67;0.67;;;;;20.49;47.22;102234.66;5057095;28;57043;-71
2022/08/06 03:28:38;;;;;;;;;1.00;0.33;;;;;20.47;47.19;102236.47;5056389;28;61038;-70
2022/08/06 03:31:04;;;;;;;;;4.33;1.00;;;;;20.45;47.19;102232.84;5055231;28;70993;-71
2022/08/06 03:33:30;;;;;;;;;1.00;1.00;;;;;20.45;47.47;102231.06;5055899;28;45386;-71
2022/08/06 03:35:58;;;;;;;;;2.67;0.67;;;;;20.46;47.88;102237.34;5055961;28;50173;-73
2022/08/06 03:38:25;;;;;;;;;1.67;1.67;;;;;20.45;47.54;102238.22;5039288;28;45385;-70
2022/08/06 03:40:50;;;;;;;;;1.67;1.67;;;;;20.43;47.65;102235.53;5057085;28;45630;-72
2022/08/06 03:43:16;;;;;;;;;0.33;0.33;;;;;20.40;47.92;102241.84;5055067;28;62150;-70
2022/08/06 03:45:50;;;;;;;;;2.67;1.33;;;;;20.35;47.52;102229.38;5038748;28;53797;-72
2022/08/06 03:48:20;;;;;;;;;2.67;0.67;;;;;20.35;47.88;102237.41;5056086;28;46462;-71
2022/08/06 03:50:48;;;;;;;;;1.33;1.33;;;;;20.32;48.07;102237.41;5038979;28;46265;-71
2022/08/06 03:53:22;;;;;;;;;3.00;0.33;;;;;20.29;48.55;102232.94;5038324;28;45332;-72
2022/08/06 03:55:50;;;;;;;;;1.67;0.67;;;;;20.27;47.97;102237.44;5039136;28;45257;-70
2022/08/06 03:58:15;;;;;;;;;0.67;0.67;;;;;20.26;48.46;102240.16;5056663;28;45512;-71
2022/08/06 04:00:49;;;;;;;;;2.00;0.33;;;;;20.26;48.61;102241.03;5055861;28;45963;-70
2022/08/06 04:03:16;;;;;;;;;0.67;0.67;;;;;20.24;48.79;102236.56;5042221;28;45520;-71
2022/08/06 04:05:42;;;;;;;;;1.67;0.67;;;;;20.23;48.75;102245.53;5056257;28;64182;-71
2022/08/06 04:08:09;;;;;;;;;1.00;1.00;;;;;20.17;49.01;102248.25;5056752;28;48721;-70
2022/08/06 04:10:50;;;;;;;;;2.33;0.33;;;;;20.16;48.64;102252.72;5056750;28;45248;-72
2022/08/06 04:13:18;;;;;;;;;3.00;2.00;;;;;20.13;49.22;102244.69;5056777;28;45502;-71
2022/08/06 04:15:44;;;;;;;;;3.00;1.33;;;;;20.11;49.07;102257.22;5055418;28;45363;-71
2022/08/06 04:18:15;;;;;;;;;1.00;1.00;;;;;20.10;49.45;102253.66;5055699;28;45251;-71
2022/08/06 04:20:44;;;;;;;;;0.33;0.33;;;;;20.04;49.19;102253.69;5054985;28;45866;-71
2022/08/06 04:23:10;;;;;;;;;4.67;1.33;;;;;20.01;48.46;102255.47;5056599;28;45387;-70
2022/08/06 04:25:39;;;;;;;;;2.00;1.00;;;;;20.01;49.14;102258.16;5055789;28;45276;-71
2022/08/06 04:28:05;;;;;;;;;1.00;0.33;;;;;19.97;48.81;102259.97;5038981;28;45419;-71
2022/08/06 04:30:33;;;;;;;;;2.33;1.33;;;;;19.96;48.46;102258.19;5055483;28;46093;-70
2022/08/06 04:33:00;;;;;;;;;3.33;1.00;;;;;19.97;48.75;102270.69;5055327;28;45445;-70
2022/08/06 04:35:26;;;;;;;;;1.00;1.00;;;;;19.95;48.48;102264.44;5056469;28;45291;-71
2022/08/06 04:37:52;;;;;;;;;0.33;0.33;;;;;19.95;48.35;102267.13;5054787;28;56985;-71
2022/08/06 04:40:18;;;;;;;;;3.33;1.33;;;;;19.92;48.18;102263.56;5057733;28;46722;-72
2022/08/06 04:42:44;;;;;;;;;2.00;0.33;;;;;19.94;48.65;102273.41;5059120;28;65334;-71
2022/08/06 04:45:09;;;;;;;;;1.00;1.00;;;;;19.90;48.38;102274.31;5057985;28;60105;-72
2022/08/06 04:47:36;;;;;;;;;1.00;1.00;;;;;19.87;48.86;102277.91;5058649;28;45370;-71
2022/08/06 04:50:02;;;;;;;;;0.00;0.00;;;;;19.90;48.68;102285.03;5040964;28;60339;-71
2022/08/06 04:52:28;;;;;;;;;1.00;1.00;;;;;19.86;48.40;102288.63;5059453;28;45531;-71
2022/08/06 04:54:54;;;;;;;;;0.33;0.33;;;;;19.88;48.44;102293.09;5041257;28;45584;-71
2022/08/06 04:57:19;;;;;;;;;4.33;0.33;;;;;19.85;48.09;102298.44;5059293;28;57813;-70
2022/08/06 04:59:44;;;;;;;;;0.67;0.67;;;;;19.83;48.41;102299.38;5058967;28;64728;-71
2022/08/06 05:02:10;;;;;;;;;1.00;1.00;;;;;19.81;48.22;102302.03;5059666;28;45471;-71
2022/08/06 05:04:36;;;;;;;;;1.00;1.00;;;;;19.82;48.35;102303.84;5059715;28;45377;-71
2022/08/06 05:07:12;;;;;;;;;2.00;1.00;;;;;19.82;49.01;102305.63;5041997;28;45518;-70
2022/08/06 05:09:38;;;;;;;;;1.00;1.00;;;;;19.82;48.88;102306.53;5041321;28;46154;-70
2022/08/06 05:12:05;;;;;;;;;1.00;1.00;;;;;19.81;49.05;102311.88;5041625;28;45267;-70
2022/08/06 05:14:52;;;;;;;;;1.00;0.33;;;;;19.77;48.91;102307.44;5041479;28;45347;-70
2022/08/06 05:17:21;;;;;;;;;3.00;1.33;;;;;19.80;48.59;102313.66;5041572;28;45386;-71
2022/08/06 05:19:57;;;;;;;;;1.00;1.00;;;;;19.80;48.56;102312.75;5041763;28;46451;-69
2022/08/06 05:22:23;;;;;;;;;3.00;0.00;;;;;19.80;48.59;102308.28;5041012;28;45379;-71
2022/08/06 05:24:49;;;;;;;;;0.33;0.33;;;;;19.81;49.30;102306.50;5059542;28;45440;-70
2022/08/06 05:27:15;;;;;;;;;2.33;1.33;;;;;19.83;48.91;102307.41;5041266;28;45653;-70
2022/08/06 05:29:41;;;;;;;;;1.00;1.00;;;;;19.83;48.91;102312.78;5040717;28;59547;-69
2022/08/06 05:32:06;;;;;;;;;3.00;0.33;;;;;19.83;49.31;102312.78;5040639;28;60790;-72
2022/08/06 05:34:32;;;;;;;;;1.00;1.00;;;;;19.79;48.73;102301.16;5059164;28;45291;-72
2022/08/06 05:36:57;;;;;;;;;2.00;0.33;;;;;19.84;49.32;102317.22;5059323;28;45396;-70
2022/08/06 05:39:23;;;;;;;;;0.00;0.00;;;;;19.84;49.12;102314.56;5040813;28;46675;-72
2022/08/06 05:41:49;;;;;;;;;0.00;0.00;;;;;19.85;48.68;102322.56;5058940;28;45360;-72
2022/08/06 05:44:14;;;;;;;;;3.00;1.00;;;;;19.85;49.26;102321.69;5041067;28;45494;-71
2022/08/06 05:46:51;;;;;;;;;1.00;1.00;;;;;19.84;48.86;102317.22;5059001;28;45389;-72
2022/08/06 05:49:25;;;;;;;;;1.00;1.00;;;;;19.85;48.67;102317.22;5040908;28;46755;-70
2022/08/06 05:52:17;;;;;;;;;1.00;1.00;;;;;19.91;48.56;102332.38;5040517;28;45288;-70
2022/08/06 05:55:01;;;;;;;;;0.00;0.00;;;;;19.92;49.09;102333.28;5029648;28;45534;-71
2022/08/06 05:57:31;;;;;;;;;1.00;1.00;;;;;19.93;49.29;102344.00;5040849;28;45371;-70
2022/08/06 06:00:01;;;;;;;;;1.33;1.33;;;;;19.93;48.75;102344.00;5058497;28;46475;-72
2022/08/06 06:02:28;;;;;;;;;3.67;0.67;;;;;19.94;49.09;102332.38;5057583;28;45534;-71
2022/08/06 06:04:54;;;;;;;;;0.67;0.67;;;;;19.97;49.09;102332.34;5058853;28;45412;-72
2022/08/06 06:07:20;;;;;;;;;1.67;0.00;;;;;19.98;48.87;102347.56;5058697;28;45464;-72
2022/08/06 06:09:45;;;;;;;;;0.67;0.67;;;;;19.99;48.68;102346.66;5057557;28;46375;-71
2022/08/06 06:12:11;;;;;;;;;1.67;0.33;;;;;19.94;48.38;102339.53;5056633;28;66577;-71
2022/08/06 06:14:39;;;;;;;;;1.33;0.67;;;;;19.94;48.93;102336.84;5057641;28;45287;-72
2022/08/06 06:17:23;;;;;;;;;0.00;0.00;;;;;19.94;48.91;102337.75;5040479;28;45528;-70
2022/08/06 06:20:07;;;;;;;;;1.67;0.67;;;;;19.95;48.87;102349.34;5040064;28;47357;-70
2022/08/06 06:22:56;;;;;;;;;0.33;0.33;;;;;19.96;48.95;102340.41;5058192;28;45605;-72
2022/08/06 06:25:26;;;;;;;;;0.33;0.33;;;;;19.95;48.74;102339.53;5058370;28;45366;-71
2022/08/06 06:28:16;;;;;;;;;0.33;0.33;;;;;19.98;49.23;102346.69;5057294;28;45645;-71
2022/08/06 06:30:52;;;;;;;;;0.67;0.67;;;;;19.98;49.28;102338.63;5058346;28;46072;-70
2022/08/06 06:33:22;;;;;;;;;3.00;1.67;;;;;19.99;49.33;102341.31;5057102;28;45536;-71
2022/08/06 06:35:58;;;;;;;;;0.33;0.33;;;;;20.00;49.08;102339.50;5057168;28;45295;-71
2022/08/06 06:38:35;;;;;;;;;0.00;0.00;;;;;19.99;49.10;102338.63;5040408;28;45437;-71
2022/08/06 06:41:22;;;;;;;;;3.67;0.33;;;;;20.01;48.89;102338.59;5057974;28;46343;-70
2022/08/06 06:44:04;;;;;;;;;1.67;0.67;;;;;20.02;49.17;102341.28;5057715;28;45290;-71
2022/08/06 06:46:36;;;;;;;;;1.33;0.33;;;;;20.03;48.51;102351.13;5040028;28;45460;-72
2022/08/06 06:49:25;;;;;;;;;2.33;0.67;;;;;20.07;48.88;102349.31;5057066;28;45622;-70
2022/08/06 06:51:56;;;;;;;;;1.33;0.33;;;;;20.09;48.67;102343.06;5057485;28;46602;-69
2022/08/06 06:54:29;;;;;;;;;0.67;0.67;;;;;20.10;49.22;102335.91;5056123;28;45500;-72
2022/08/06 06:56:56;;;;;;;;;2.33;0.67;;;;;20.13;48.69;102328.75;5039955;28;45509;-71
2022/08/06 06:59:27;;;;;;;;;2.00;1.67;;;;;20.18;48.77;102336.72;5056548;28;45369;-71
2022/08/06 07:01:53;;;;;;;;;0.67;0.67;;;;;20.21;47.95;102339.41;5056354;28;46788;-71
2022/08/06 07:04:20;;;;;;;;;0.67;0.00;;;;;20.22;48.09;102335.81;5055266;28;64407;-70
2022/08/06 07:06:47;;;;;;;;;1.00;1.00;;;;;20.26;48.35;102334.03;5056601;28;45253;-69
2022/08/06 07:09:21;;;;;;;;;2.33;0.67;;;;;20.27;47.96;102343.84;5056708;28;45387;-69
2022/08/06 07:11:48;;;;;;;;;0.00;0.00;;;;;20.29;47.94;102345.63;5056326;28;46722;-71
2022/08/06 07:14:14;;;;;;;;;1.33;0.33;;;;;20.34;47.41;102354.53;5039561;28;45480;-70
2022/08/06 07:16:41;;;;;;;;;1.00;1.00;;;;;20.40;48.16;102349.16;5056506;28;45371;-70
2022/08/06 07:19:07;;;;;;;;;0.33;0.33;;;;;20.46;47.41;102355.41;5057373;28;45617;-70
2022/08/06 07:21:34;;;;;;;;;0.67;0.67;;;;;20.51;47.73;102356.31;5039325;28;46249;-70
2022/08/06 07:23:59;;;;;;;;;0.33;0.33;;;;;20.49;47.22;102355.41;5038911;28;45315;-72
2022/08/06 07:26:27;;;;;;;;;0.00;0.00;;;;;20.56;46.90;102367.88;5056456;28;45365;-70
2022/08/06 07:28:53;;;;;;;;;1.00;1.00;;;;;20.57;46.73;102361.63;5056143;28;45588;-70
2022/08/06 07:31:23;;;;;;;;;0.33;0.00;;;;;20.60;46.86;102362.47;5039267;28;47414;-70
2022/08/06 07:33:50;;;;;;;;;0.00;0.00;;;;;20.67;46.95;102355.31;5057574;28;45395;-70
2022/08/06 07:36:17;;;;;;;;;2.00;0.67;;;;;20.73;46.23;102354.38;5057589;28;45372;-72
2022/08/06 07:38:44;;;;;;;;;0.00;0.00;;;;;20.81;46.81;102358.75;5056027;28;45272;-71
2022/08/06 07:41:11;;;;;;;;;0.00;0.00;;;;;20.84;46.27;102361.44;5039089;28;46881;-70
2022/08/06 07:43:48;;;;;;;;;1.00;1.00;;;;;20.85;45.80;102354.28;5038670;28;45370;-71
2022/08/06 07:46:18;;;;;;;;;2.00;0.00;;;;;20.92;45.53;102356.00;5039093;28;45375;-70
2022/08/06 07:48:47;;;;;;;;;1.00;0.00;;;;;20.97;45.90;102359.53;5057464;28;45534;-72
2022/08/06 07:51:13;;;;;;;;;0.00;0.00;;;;;21.00;46.08;102359.53;5055590;28;46032;-72
2022/08/06 07:53:40;;;;;;;;;0.00;0.00;;;;;21.10;45.62;102361.25;5056594;28;45359;-72
2022/08/06 07:56:07;;;;;;;;;2.00;1.00;;;;;21.15;44.74;102358.53;5039180;28;45379;-71
2022/08/06 07:58:34;;;;;;;;;1.00;1.00;;;;;21.19;45.01;102363.81;5056021;28;45247;-70
2022/08/06 08:01:00;;;;;;;;;1.00;1.00;;;;;21.26;44.94;102358.44;5056921;28;45892;-70
2022/08/06 08:06:23;;;;;;;;;0.00;0.00;;;;;21.32;44.67;102361.97;5057149;28;45291;-71
2022/08/06 08:08:52;;;;;;;;;0.00;0.00;;;;;21.37;44.47;102370.88;5056155;28;45406;-72
2022/08/06 08:11:18;;;;;;;;;0.00;0.00;;;;;21.43;44.18;102373.50;5055263;28;45713;-72
2022/08/06 08:13:43;;;;;;;;;0.00;0.00;;;;;21.50;44.24;102376.13;5038653;28;45367;-71
2022/08/06 08:16:13;;;;;;;;;0.00;0.00;;;;;21.52;44.06;102377.00;5059595;28;45286;-71
2022/08/06 08:18:39;;;;;;;;;0.00;0.00;;;;;21.54;43.53;102368.03;5060513;28;45680;-71
2022/08/06 08:21:06;;;;;;;;;0.67;0.67;;;;;21.57;43.13;102373.38;5042005;28;46859;-71
2022/08/06 08:23:32;;;;;;;;;4.67;1.67;;;;;21.63;43.71;102377.81;5059114;28;70009;-72
2022/08/06 08:25:59;;;;;;;;;1.00;1.00;;;;;21.65;43.19;102374.19;5059115;28;45446;-71
2022/08/06 08:28:25;;;;;;;;;2.00;0.00;;;;;21.70;42.91;102384.91;5060710;28;45319;-71
2022/08/06 08:30:50;;;;;;;;;0.00;0.00;;;;;21.71;42.32;102373.22;5059520;28;58640;-71
2022/08/06 08:33:17;;;;;;;;;0.00;0.00;;;;;21.77;42.63;102378.53;5041169;28;65858;-72
2022/08/06 08:35:43;;;;;;;;;0.00;0.00;;;;;21.81;42.97;102369.53;5042278;28;45311;-72
2022/08/06 08:38:08;;;;;;;;;0.00;0.00;;;;;21.87;42.71;102366.78;5060194;28;45284;-72
2022/08/06 08:40:34;;;;;;;;;0.00;0.00;;;;;21.89;42.41;102373.03;5058971;28;69626;-71
2022/08/06 08:43:02;;;;;;;;;0.00;0.00;;;;;21.97;42.67;102371.13;5058522;28;45507;-72
2022/08/06 08:45:28;;;;;;;;;0.00;0.00;;;;;22.01;42.39;102366.63;5059640;28;45236;-72
2022/08/06 08:47:53;;;;;;;;;0.00;0.00;;;;;22.04;42.38;102358.50;5060203;28;45213;-71
2022/08/06 08:50:21;;;;;;;;;1.00;1.00;;;;;22.07;41.98;102354.88;5048512;22;47649;-72
2022/08/06 08:52:49;;;;;;;;;0.00;0.00;;;;;22.13;42.12;102357.53;5055111;28;45379;-72
2022/08/06 08:55:17;;;;;;;;;1.00;1.00;;;;;22.19;41.75;102355.66;5039389;28;45370;-71
2022/08/06 08:57:42;;;;;;;;;0.67;0.67;;;;;22.23;41.88;102362.78;5055086;28;45519;-72
2022/08/06 09:00:08;;;;;;;;;0.67;0.00;;;;;22.27;41.78;102360.06;5038233;28;45384;-72
2022/08/06 09:02:37;;;;;;;;;2.00;0.33;;;;;22.32;41.96;102361.78;5039497;28;45236;-72
2022/08/06 09:05:02;;;;;;;;;1.00;1.00;;;;;22.36;41.44;102352.72;5039973;28;45280;-72
2022/08/06 09:07:28;;;;;;;;;1.33;0.00;;;;;22.39;41.08;102355.38;5055117;28;45307;-70
2022/08/06 09:09:54;;;;;;;;;1.00;1.00;;;;;22.42;41.35;102359.81;5039387;28;46544;-72
2022/08/06 09:12:20;;;;;;;;;0.67;0.67;;;;;22.45;41.67;102355.31;5038171;28;45833;-71
2022/08/06 09:14:46;;;;;;;;;2.00;1.00;;;;;22.49;41.35;102359.75;5038345;28;45516;-70
2022/08/06 09:17:12;;;;;;;;;2.33;1.00;;;;;22.56;41.23;102365.03;5039344;28;45252;-71
2022/08/06 09:19:37;;;;;;;;;2.00;0.00;;;;;22.57;40.98;102356.03;5037557;28;47408;-70
2022/08/06 09:22:03;;;;;;;;;1.00;1.00;;;;;22.62;40.87;102359.53;5039209;28;45369;-72
2022/08/06 09:24:29;;;;;;;;;0.00;0.00;;;;;22.65;41.08;102370.28;5039054;28;45277;-70
2022/08/06 09:27:08;;;;;;;;;1.67;1.00;;;;;22.68;41.02;102359.44;5020750;28;45406;-72
2022/08/06 09:29:34;;;;;;;;;1.67;1.00;;;;;22.71;40.85;102360.31;5037632;28;47761;-71
2022/08/06 09:32:03;;;;;;;;;0.33;0.33;;;;;22.76;40.32;102362.94;5038004;28;45317;-72
2022/08/06 09:34:39;;;;;;;;;0.00;0.00;;;;;22.81;40.72;102363.75;5039107;28;45315;-71
2022/08/06 09:37:05;;;;;;;;;0.00;0.00;;;;;22.88;40.33;102362.78;5039064;28;45348;-72
2022/08/06 09:39:35;;;;;;;;;1.00;1.00;;;;;22.91;40.59;102357.34;5037461;28;46219;-72
2022/08/06 09:42:00;;;;;;;;;8.67;8.67;;;;;22.90;40.59;102358.22;5054161;28;45303;-72
2022/08/06 09:44:25;;;;;;;;;3.00;3.00;;;;;22.97;40.02;102354.56;5049852;28;45368;-71
2022/08/06 09:46:51;;;;;;;;;2.00;1.00;;;;;23.07;40.16;102359.78;5038559;28;45351;-70
2022/08/06 09:49:18;;;;;;;;;0.00;0.00;;;;;23.12;39.46;102355.22;5054237;28;46857;-71
2022/08/06 09:51:43;;;;;;;;;1.00;1.00;;;;;23.14;40.32;102364.16;5054706;28;45460;-72
2022/08/06 09:54:15;;;;;;;;;0.67;0.67;;;;;23.19;39.74;102360.47;5057947;28;62342;-71
2022/08/06 09:56:42;;;;;;;;;0.00;0.00;;;;;23.25;40.14;102363.06;5039857;28;45217;-70
2022/08/06 09:59:09;;;;;;;;;1.00;1.00;;;;;23.30;39.90;102362.09;5038708;28;46513;-72
2022/08/06 10:01:43;;;;;;;;;0.33;0.33;;;;;23.34;39.74;102359.31;5057723;28;45296;-72
2022/08/06 10:04:24;;;;;;;;;0.33;0.33;;;;;23.34;39.25;102348.53;5057628;28;45400;-72
2022/08/06 10:06:56;;;;;;;;;1.00;1.00;;;;;23.41;38.15;102354.69;5058645;28;45631;-70
2022/08/06 10:09:23;;;;;;;;;2.00;0.00;;;;;23.46;38.64;102358.19;5058408;28;46232;-72
2022/08/06 10:11:49;;;;;;;;;0.00;0.00;;;;;23.46;38.35;102348.31;5058355;28;45339;-72
2022/08/06 10:14:28;;;;;;;;;0.67;0.67;;;;;23.53;38.30;102354.47;5058374;28;45361;-70
2022/08/06 10:17:10;;;;;;;;;1.00;1.00;;;;;23.62;37.76;102356.09;5041191;28;45470;-71
2022/08/06 10:19:37;;;;;;;;;0.67;0.67;;;;;23.64;36.77;102341.69;5054792;22;45319;-71
2022/08/06 10:22:16;;;;;;;;;1.33;0.33;;;;;23.70;37.10;102341.59;5051468;28;45180;-71
2022/08/06 10:24:43;;;;;;;;;2.00;0.33;;;;;23.76;36.90;102344.16;5040278;28;45438;-71
2022/08/06 10:27:11;;;;;;;;;2.33;1.67;;;;;23.82;37.69;102348.56;5058603;28;45604;-72
2022/08/06 10:29:40;;;;;;;;;2.00;1.00;;;;;23.88;37.79;102344.84;5058242;28;45643;-72
2022/08/06 10:32:09;;;;;;;;;1.00;1.00;;;;;23.93;38.09;102345.63;5056823;28;45425;-72
2022/08/06 10:34:35;;;;;;;;;2.33;1.00;;;;;23.97;37.69;102334.75;5058413;28;45355;-72
2022/08/06 10:37:05;;;;;;;;;0.33;0.33;;;;;24.03;36.89;102337.31;5056165;28;45577;-72
2022/08/06 10:39:34;;;;;;;;;2.67;1.67;;;;;24.10;36.18;102337.19;5057742;28;45625;-71
2022/08/06 10:42:01;;;;;;;;;1.00;1.00;;;;;24.13;34.98;102337.09;5056397;28;45287;-72
2022/08/06 10:44:27;;;;;;;;;2.00;0.00;;;;;24.19;35.50;102323.50;5056864;28;45409;-72
2022/08/06 10:46:52;;;;;;;;;0.67;0.67;;;;;24.22;35.02;102321.59;5058224;28;45357;-72
2022/08/06 10:49:22;;;;;;;;;1.00;1.00;;;;;24.29;35.39;102333.19;5058016;28;46894;-72
2022/08/06 10:51:49;;;;;;;;;1.00;1.00;;;;;24.35;35.45;102330.38;5057538;28;45342;-71
2022/08/06 10:54:15;;;;;;;;;1.33;0.00;;;;;24.38;35.51;102332.09;5057927;28;45357;-73
2022/08/06 10:56:41;;;;;;;;;0.33;0.33;;;;;24.40;35.63;102312.25;5057933;28;45574;-71
2022/08/06 10:59:07;;;;;;;;;1.00;1.00;;;;;24.48;35.11;102317.47;5057802;28;52418;-73
2022/08/06 11:01:40;;;;;;;;;1.00;1.00;;;;;24.53;35.04;102305.63;5057564;28;45456;-72
2022/08/06 11:04:21;;;;;;;;;2.00;2.00;;;;;24.61;34.74;102313.56;5057889;28;45228;-72
2022/08/06 11:07:14;;;;;;;;;0.00;0.00;;;;;24.67;34.69;102302.59;5056686;28;45314;-71
2022/08/06 11:14:41;;;;;;;;;2.00;2.00;;;;;24.76;34.27;102304.19;5056317;22;45375;-70
2022/08/06 11:17:06;;;;;;;;;1.00;1.00;;;;;24.79;34.47;102301.41;5055761;28;57378;-71
2022/08/06 11:19:46;;;;;;;;;3.33;2.00;;;;;24.88;33.03;102301.19;5055968;28;46643;-72
2022/08/06 11:22:34;;;;;;;;;1.00;1.00;;;;;24.94;33.93;102305.56;5039235;28;45352;-71
2022/08/06 11:25:00;;;;;;;;;1.33;1.33;;;;;24.97;33.15;102306.34;5057397;28;45290;-72
2022/08/06 11:27:47;;;;;;;;;0.67;0.67;;;;;25.05;33.15;102293.53;5057479;28;45279;-73
2022/08/06 11:30:13;;;;;;;;;1.67;1.00;;;;;25.11;33.33;102288.94;5057094;28;46576;-70
2022/08/06 11:32:49;;;;;;;;;3.67;1.00;;;;;25.19;33.57;102295.88;5057443;28;45305;-71
2022/08/06 11:35:33;;;;;;;;;1.00;1.00;;;;;25.27;32.51;102285.75;5039239;28;45331;-73
2022/08/06 11:38:06;;;;;;;;;2.00;0.00;;;;;25.34;33.18;102289.19;5057609;28;45256;-73
2022/08/06 11:40:55;;;;;;;;;1.00;1.00;;;;;25.40;32.09;102283.59;5057133;28;47099;-71